createdAt,value
2022-09-23T00:01:18.099Z,7.90
2022-09-23T00:04:20.299Z,7.90
2022-09-23T00:07:21.852Z,7.90
2022-09-23T00:10:25.799Z,7.90
2022-09-23T00:13:27.364Z,7.90
2022-09-23T00:16:33.343Z,7.90
2022-09-23T00:19:35.159Z,7.80
2022-09-23T00:22:37.543Z,7.80
2022-09-23T00:25:39.235Z,7.80
2022-09-23T00:28:41.052Z,7.80
2022-09-23T00:31:42.593Z,7.80
2022-09-23T00:34:44.880Z,7.70
2022-09-23T00:37:46.518Z,7.70
2022-09-23T00:40:48.263Z,7.70
2022-09-23T00:43:56.075Z,7.70
2022-09-23T00:46:57.659Z,7.60
2022-09-23T00:50:20.285Z,7.60
2022-09-23T00:53:26.468Z,7.50
2022-09-23T00:56:29.346Z,7.60
2022-09-23T00:59:32.194Z,7.50
2022-09-23T01:02:34.094Z,7.50
2022-09-23T01:05:39.894Z,7.40
2022-09-23T01:08:44.333Z,7.30
2022-09-23T01:11:56.611Z,7.20
2022-09-23T01:15:08.846Z,7.20
2022-09-23T01:18:26.970Z,7.20
2022-09-23T01:21:34.503Z,7.10
2022-09-23T01:24:54.923Z,7.10
2022-09-23T01:28:14.985Z,7.00
2022-09-23T01:31:33.958Z,7.00
2022-09-23T15:31:26.635Z,20.00
2022-09-23T15:34:28.346Z,19.90
2022-09-23T15:37:34.156Z,19.80
2022-09-23T15:40:38.692Z,19.70
2022-09-23T15:43:41.755Z,19.70
2022-09-23T15:46:47.040Z,19.30
2022-09-23T15:49:48.728Z,19.20
2022-09-23T15:52:50.440Z,19.10
2022-09-23T15:55:52.338Z,19.10
2022-09-23T15:58:54.166Z,19.10
2022-09-23T16:01:56.686Z,19.00
2022-09-23T16:04:58.373Z,18.90
2022-09-23T16:08:03.734Z,18.80
2022-09-23T16:11:19.454Z,18.80
2022-09-23T16:14:21.053Z,18.70
2022-09-23T16:17:22.933Z,18.60
2022-09-23T16:20:29.540Z,18.60
2022-09-23T16:23:39.449Z,18.50
2022-09-23T16:26:41.121Z,18.40
2022-09-23T16:29:42.682Z,18.40
2022-09-23T16:32:44.339Z,18.20
2022-09-23T16:35:45.916Z,18.20
2022-09-23T16:38:48.038Z,18.10
2022-09-23T16:41:49.801Z,18.00
2022-09-23T16:44:51.359Z,17.80
2022-09-23T16:47:54.110Z,17.70
2022-09-23T16:50:55.696Z,17.60
2022-09-23T16:53:59.355Z,17.50
2022-09-23T16:57:00.915Z,17.40
2022-09-23T17:00:23.701Z,17.40
2022-09-23T17:03:40.911Z,17.30
2022-09-23T17:06:44.249Z,17.20
2022-09-23T17:09:45.900Z,17.10
2022-09-23T17:12:47.484Z,17.00
2022-09-23T17:15:49.654Z,17.00
2022-09-23T17:18:51.820Z,16.90
2022-09-23T17:21:53.551Z,16.80
2022-09-23T17:24:55.452Z,16.80
2022-09-23T17:27:57.775Z,16.60
2022-09-23T17:31:01.584Z,16.60
2022-09-23T17:34:03.160Z,16.50
2022-09-23T17:37:04.810Z,16.40
2022-09-23T17:40:07.051Z,16.30
2022-09-23T17:43:08.684Z,16.20
2022-09-23T17:46:12.641Z,16.10
2022-09-23T17:49:14.944Z,16.00
2022-09-23T17:52:17.580Z,15.90
2022-09-23T17:55:19.926Z,15.80
2022-09-23T17:58:25.464Z,15.80
2022-09-23T18:01:27.611Z,15.70
2022-09-23T18:04:29.239Z,15.60
2022-09-23T18:07:30.795Z,15.50
2022-09-23T18:10:32.602Z,15.40
2022-09-23T18:13:34.189Z,15.30
2022-09-23T18:16:39.400Z,15.30
2022-09-23T18:19:41.108Z,15.20
2022-09-23T18:22:42.678Z,15.20
2022-09-23T18:25:44.276Z,15.10
2022-09-23T18:28:46.036Z,15.00
2022-09-23T18:31:49.325Z,14.90
2022-09-23T18:34:51.053Z,14.90
2022-09-23T18:37:52.646Z,14.80
2022-09-23T18:40:57.660Z,14.70
2022-09-23T18:43:59.349Z,14.60
2022-09-23T18:47:01.006Z,14.70
2022-09-23T18:50:21.161Z,14.60
2022-09-23T18:53:24.031Z,14.50
2022-09-23T18:56:34.461Z,14.50
2022-09-23T18:59:36.271Z,14.50
2022-09-23T19:02:37.867Z,14.50
2022-09-23T19:05:39.516Z,14.50
2022-09-23T19:08:42.043Z,14.50
2022-09-23T19:11:44.282Z,14.50
2022-09-23T19:14:45.872Z,14.40
2022-09-23T19:17:47.459Z,14.40
2022-09-23T19:20:54.647Z,14.30
2022-09-23T19:24:00.573Z,14.30
2022-09-23T19:27:03.238Z,14.20
2022-09-23T19:30:06.999Z,14.20
2022-09-23T19:33:09.848Z,14.10
2022-09-23T19:36:12.179Z,14.10
2022-09-23T19:39:22.315Z,14.10
2022-09-23T19:42:27.517Z,14.20
2022-09-23T19:45:32.788Z,14.10
2022-09-23T19:48:34.343Z,14.00
2022-09-23T19:51:35.995Z,14.00
2022-09-23T19:54:37.562Z,13.90
2022-09-23T19:57:39.146Z,13.90
2022-09-23T20:00:41.121Z,13.80
2022-09-23T20:03:44.726Z,13.70
2022-09-23T20:06:48.673Z,13.70
2022-09-23T20:09:50.342Z,13.60
2022-09-23T20:12:52.819Z,13.50
2022-09-23T20:15:54.460Z,13.40
2022-09-23T20:18:56.496Z,13.40
2022-09-23T20:22:16.564Z,13.30
2022-09-23T20:25:18.177Z,13.20
2022-09-23T20:28:21.170Z,13.20
2022-09-23T20:31:23.305Z,13.00
2022-09-23T20:34:24.992Z,12.90
2022-09-23T20:37:26.546Z,12.90
2022-09-23T20:40:28.153Z,12.80
2022-09-23T20:43:32.209Z,12.80
2022-09-23T20:46:34.368Z,12.80
2022-09-23T20:49:36.383Z,12.70
2022-09-23T21:26:26.376Z,12.10
2022-09-23T22:49:07.319Z,11.80
2022-09-23T22:52:09.141Z,11.80
2022-09-23T22:55:11.694Z,11.80
2022-09-23T22:58:31.311Z,11.70
2022-09-23T23:01:34.940Z,11.70
2022-09-23T23:04:37.060Z,11.70
2022-09-23T23:07:39.052Z,11.60
2022-09-23T23:10:40.887Z,11.60
2022-09-23T23:13:43.050Z,11.60
2022-09-23T23:16:45.979Z,11.50
2022-09-23T23:19:47.586Z,11.50
2022-09-23T23:22:49.427Z,11.60
2022-09-23T23:25:50.977Z,11.60
2022-09-23T23:28:53.762Z,11.60
2022-09-23T23:31:55.401Z,11.50
2022-09-23T23:34:57.089Z,11.50
2022-09-23T23:37:58.822Z,11.60
2022-09-23T23:41:10.985Z,11.60
2022-09-23T23:44:12.657Z,11.60
2022-09-23T23:47:14.517Z,11.60
2022-09-23T23:50:16.228Z,11.60
2022-09-23T23:53:19.170Z,11.60
2022-09-23T23:56:25.610Z,11.40
2022-09-23T23:59:28.711Z,11.30
